createdAt,value
2018-03-08T00:00:42.373Z,31.1
2018-03-08T00:01:32.229Z,31.2
2018-03-08T00:02:23.363Z,31.2
2018-03-08T00:03:13.453Z,31.1
2018-03-08T00:04:03.776Z,31.1
2018-03-08T00:04:52.980Z,31.1
2018-03-08T00:05:43.881Z,31.1
2018-03-08T00:06:33.723Z,31.1
2018-03-08T00:07:23.724Z,31.1
2018-03-08T00:08:13.783Z,31.1
2018-03-08T00:09:03.798Z,31.2
2018-03-08T00:09:53.870Z,31.1
2018-03-08T00:10:43.662Z,31.1
2018-03-08T00:11:33.991Z,31.1
2018-03-08T00:12:24.081Z,31.1
2018-03-08T00:13:14.369Z,31.1
2018-03-08T00:14:03.634Z,31.1
2018-03-08T00:14:54.028Z,31.1
2018-03-08T00:15:43.738Z,31.1
2018-03-08T00:16:34.089Z,31.1
2018-03-08T00:17:24.150Z,31
2018-03-08T00:18:14.774Z,31
2018-03-08T00:19:04.805Z,31
2018-03-08T00:19:54.874Z,31
2018-03-08T00:20:44.635Z,31
2018-03-08T00:21:34.152Z,31
2018-03-08T00:22:24.065Z,31
2018-03-08T00:23:13.904Z,31
2018-03-08T00:24:03.929Z,31
2018-03-08T00:24:54.712Z,31
2018-03-08T00:25:44.758Z,31
2018-03-08T00:26:34.869Z,31
2018-03-08T00:27:23.992Z,30.9
2018-03-08T00:28:14.357Z,30.9
2018-03-08T00:29:05.019Z,30.9
2018-03-08T00:29:54.814Z,30.9
2018-03-08T00:30:44.660Z,30.9
2018-03-08T00:31:34.189Z,30.9
2018-03-08T00:32:24.212Z,30.9
2018-03-08T00:33:14.351Z,30.9
2018-03-08T00:34:04.829Z,30.9
2018-03-08T00:34:54.519Z,30.9
2018-03-08T00:35:44.726Z,30.9
2018-03-08T00:36:34.523Z,30.9
2018-03-08T00:37:24.119Z,30.9
2018-03-08T00:38:14.793Z,30.9
2018-03-08T00:39:04.969Z,30.8
2018-03-08T00:39:55.171Z,30.8
2018-03-08T00:40:44.149Z,30.8
2018-03-08T00:41:35.456Z,30.9
2018-03-08T00:42:25.012Z,30.8
2018-03-08T00:43:15.300Z,30.8
2018-03-08T00:44:04.976Z,30.8
2018-03-08T00:44:55.635Z,30.8
2018-03-08T00:45:45.281Z,30.8
2018-03-08T00:46:34.958Z,30.8
2018-03-08T00:47:26.090Z,30.8
2018-03-08T00:48:15.640Z,30.8
2018-03-08T00:49:04.750Z,30.8
2018-03-08T00:49:56.093Z,30.8
2018-03-08T00:50:45.622Z,30.8
2018-03-08T00:51:35.183Z,30.8
2018-03-08T00:52:26.386Z,30.8
2018-03-08T00:53:16.752Z,30.8
2018-03-08T00:54:05.782Z,30.8
2018-03-08T00:54:56.022Z,30.8
2018-03-08T00:55:46.392Z,30.8
2018-03-08T00:56:35.577Z,30.8
2018-03-08T00:57:26.427Z,30.7
2018-03-08T00:58:16.170Z,30.8
2018-03-08T00:59:06.859Z,30.7
2018-03-08T00:59:56.584Z,30.7
2018-03-08T01:00:46.772Z,30.7
2018-03-08T01:01:36.677Z,30.8
2018-03-08T01:02:26.719Z,30.7
2018-03-08T01:03:17.189Z,30.7
2018-03-08T01:04:06.942Z,30.7
2018-03-08T01:04:57.583Z,30.7
2018-03-08T01:05:46.602Z,30.7
2018-03-08T01:06:36.649Z,30.7
2018-03-08T01:07:27.711Z,30.6
2018-03-08T01:08:16.896Z,30.7
2018-03-08T01:09:07.231Z,30.6
2018-03-08T01:09:57.431Z,30.6
2018-03-08T01:10:47.682Z,30.6
2018-03-08T01:11:37.577Z,30.6
2018-03-08T01:12:27.721Z,30.6
2018-03-08T01:13:17.396Z,30.6
2018-03-08T01:14:07.772Z,30.6
2018-03-08T01:14:57.921Z,30.6
2018-03-08T01:15:47.144Z,30.6
2018-03-08T01:16:37.058Z,30.6
2018-03-08T01:17:27.839Z,30.6
2018-03-08T01:18:17.873Z,30.6
2018-03-08T01:19:07.824Z,30.6
2018-03-08T01:19:57.648Z,30.6
2018-03-08T01:20:47.388Z,30.6
2018-03-08T01:21:37.314Z,30.6
2018-03-08T01:22:27.388Z,30.6
2018-03-08T01:23:17.846Z,30.5
2018-03-08T01:24:07.938Z,30.6
2018-03-08T01:24:58.448Z,30.5
2018-03-08T01:25:48.506Z,30.6
2018-03-08T01:26:37.574Z,30.5
2018-03-08T01:27:28.602Z,30.6
2018-03-08T01:28:18.846Z,30.5
2018-03-08T01:29:08.203Z,30.5
2018-03-08T01:29:59.050Z,30.5
2018-03-08T01:30:48.625Z,30.5
2018-03-08T01:31:38.893Z,30.5
2018-03-08T01:32:28.984Z,30.4
2018-03-08T01:33:19.858Z,30.4
2018-03-08T01:34:08.708Z,30.5
2018-03-08T01:34:58.653Z,30.4
2018-03-08T01:35:48.899Z,30.4
2018-03-08T01:36:39.533Z,30.4
2018-03-08T01:37:29.803Z,30.4
2018-03-08T01:38:20.454Z,30.5
2018-03-08T01:39:09.730Z,30.4
2018-03-08T01:39:59.467Z,30.4
2018-03-08T01:40:49.432Z,30.4
2018-03-08T01:41:38.910Z,30.4
2018-03-08T01:42:28.679Z,30.4
2018-03-08T01:43:19.705Z,30.4
2018-03-08T01:44:10.258Z,30.4
2018-03-08T01:44:59.237Z,30.4
2018-03-08T01:45:49.422Z,30.4
2018-03-08T01:46:40.185Z,30.4
2018-03-08T01:47:29.907Z,30.4
2018-03-08T01:48:19.942Z,30.4
2018-03-08T01:49:10.209Z,30.3
2018-03-08T01:49:59.692Z,30.4
2018-03-08T01:50:50.185Z,30.3
2018-03-08T01:51:40.210Z,30.3
2018-03-08T01:52:30.542Z,30.3
2018-03-08T01:53:20.657Z,30.3
2018-03-08T01:54:09.611Z,30.3
2018-03-08T01:55:00.048Z,30.3
2018-03-08T01:55:50.531Z,30.3
2018-03-08T01:56:40.794Z,30.3
2018-03-08T01:57:29.856Z,30.3
2018-03-08T01:58:19.722Z,30.3
2018-03-08T01:59:11.088Z,30.3
2018-03-08T02:00:00.948Z,30.3
2018-03-08T02:00:50.811Z,30.3
2018-03-08T02:01:41.518Z,30.3
2018-03-08T02:02:29.873Z,30.3
2018-03-08T02:03:21.061Z,30.3
2018-03-08T02:04:10.453Z,30.3
2018-03-08T02:05:00.791Z,30.3
2018-03-08T02:05:51.200Z,30.3
2018-03-08T02:06:40.898Z,30.3
2018-03-08T02:07:31.869Z,30.3
2018-03-08T02:08:21.786Z,30.3
2018-03-08T02:09:10.875Z,30.3
2018-03-08T02:10:01.505Z,30.3
2018-03-08T02:10:50.688Z,30.2
2018-03-08T02:11:41.885Z,30.2
2018-03-08T02:12:30.678Z,30.2
2018-03-08T02:13:21.630Z,30.2
2018-03-08T02:14:11.890Z,30.2
2018-03-08T02:15:01.697Z,30.2
2018-03-08T02:15:52.235Z,30.2
2018-03-08T02:16:41.893Z,30.2
2018-03-08T02:17:32.448Z,30.2
2018-03-08T02:18:22.381Z,30.2
2018-03-08T02:19:11.968Z,30.1
2018-03-08T02:20:01.521Z,30.1
2018-03-08T02:20:51.967Z,30.1
2018-03-08T02:21:41.985Z,30.1
2018-03-08T02:22:32.711Z,30.1
2018-03-08T02:23:22.336Z,30.1
2018-03-08T02:24:12.109Z,30.1
2018-03-08T02:25:01.917Z,30.1
2018-03-08T02:25:52.597Z,30.1
2018-03-08T02:26:42.024Z,30.1
2018-03-08T02:27:33.281Z,30.1
2018-03-08T02:28:22.565Z,30.1
2018-03-08T02:29:12.853Z,30.1
2018-03-08T02:30:03.310Z,30.1
2018-03-08T02:30:52.387Z,30.1
2018-03-08T02:31:43.326Z,30.1
2018-03-08T02:32:32.787Z,30.1
2018-03-08T02:33:22.989Z,30.1
2018-03-08T02:34:13.003Z,30.1
2018-03-08T02:35:03.622Z,30.1
2018-03-08T02:35:53.005Z,30.1
2018-03-08T02:36:42.904Z,30.1
2018-03-08T02:37:32.941Z,30.1
2018-03-08T02:38:22.420Z,30
2018-03-08T02:39:13.482Z,30.1
2018-03-08T02:40:03.963Z,30
2018-03-08T02:40:53.836Z,30
2018-03-08T02:41:43.089Z,30
2018-03-08T02:42:32.520Z,30
2018-03-08T02:43:23.143Z,30
2018-03-08T02:44:14.168Z,30
2018-03-08T02:45:04.211Z,30
2018-03-08T02:45:53.692Z,29.9
2018-03-08T02:46:44.127Z,30
2018-03-08T02:47:33.714Z,29.9
2018-03-08T02:48:24.250Z,30
2018-03-08T02:49:13.200Z,29.9
2018-03-08T02:50:03.840Z,29.9
2018-03-08T02:50:54.963Z,29.9
2018-03-08T02:51:44.471Z,29.9
2018-03-08T02:52:34.423Z,29.9
2018-03-08T02:53:24.843Z,29.9
2018-03-08T02:54:14.700Z,29.9
2018-03-08T02:55:05.033Z,29.9
2018-03-08T02:55:55.135Z,29.9
2018-03-08T02:56:44.783Z,29.9
2018-03-08T02:57:34.623Z,29.9
2018-03-08T02:58:24.782Z,29.9
2018-03-08T02:59:15.555Z,29.9
2018-03-08T03:00:04.996Z,29.9
2018-03-08T03:00:55.360Z,29.9
2018-03-08T03:01:45.467Z,29.9
2018-03-08T03:02:34.455Z,29.9
2018-03-08T03:03:24.521Z,29.9
2018-03-08T03:04:15.480Z,29.9
2018-03-08T03:05:05.033Z,29.9
2018-03-08T03:05:55.059Z,29.9
2018-03-08T03:06:44.946Z,29.8
2018-03-08T03:07:35.314Z,29.8
2018-03-08T03:08:24.808Z,29.8
2018-03-08T03:09:15.462Z,29.8
2018-03-08T03:10:05.832Z,29.8
2018-03-08T03:10:55.497Z,29.8
2018-03-08T03:11:45.203Z,29.8
2018-03-08T03:12:35.862Z,29.8
2018-03-08T03:13:26.302Z,29.8
2018-03-08T03:14:16.304Z,29.8
2018-03-08T03:15:05.789Z,29.8
2018-03-08T03:15:55.806Z,29.8
2018-03-08T03:16:46.494Z,29.8
2018-03-08T03:17:36.236Z,29.8
2018-03-08T03:18:27.085Z,29.8
2018-03-08T03:19:17.189Z,29.8
2018-03-08T03:20:07.527Z,29.8
2018-03-08T03:20:56.987Z,29.8
2018-03-08T03:21:47.070Z,29.8
2018-03-08T03:22:37.363Z,29.8
2018-03-08T03:23:27.750Z,29.8
2018-03-08T03:24:17.489Z,29.8
2018-03-08T03:25:06.706Z,29.8
2018-03-08T03:25:56.975Z,29.8
2018-03-08T03:26:46.516Z,29.8
2018-03-08T03:27:36.193Z,29.7
2018-03-08T03:28:26.679Z,29.7
2018-03-08T03:29:16.649Z,29.7
2018-03-08T03:30:07.142Z,29.7
2018-03-08T03:30:56.738Z,29.7
2018-03-08T03:31:46.129Z,29.7
2018-03-08T03:32:37.287Z,29.7
2018-03-08T03:33:28.195Z,29.7
2018-03-08T03:34:17.958Z,29.7
2018-03-08T03:35:07.275Z,29.6
2018-03-08T03:35:57.588Z,29.7
2018-03-08T03:36:47.043Z,29.6
2018-03-08T03:37:37.348Z,29.6
2018-03-08T03:38:26.808Z,29.6
2018-03-08T03:39:17.118Z,29.6
2018-03-08T03:40:07.924Z,29.6
2018-03-08T03:40:57.937Z,29.6
2018-03-08T03:41:47.642Z,29.6
2018-03-08T03:42:38.073Z,29.6
2018-03-08T03:43:28.150Z,29.6
2018-03-08T03:44:17.689Z,29.6
2018-03-08T03:45:08.978Z,29.6
2018-03-08T03:45:58.755Z,29.6
2018-03-08T03:46:48.785Z,29.6
2018-03-08T03:47:38.968Z,29.6
2018-03-08T03:48:28.362Z,29.6
2018-03-08T03:49:18.640Z,29.6
2018-03-08T03:50:09.098Z,29.6
2018-03-08T03:50:59.677Z,29.6
2018-03-08T03:51:49.707Z,29.6
2018-03-08T03:52:39.762Z,29.6
2018-03-08T03:53:29.792Z,29.6
2018-03-08T03:54:19.627Z,29.6
2018-03-08T03:55:09.959Z,29.6
2018-03-08T03:55:59.140Z,29.6
2018-03-08T03:56:47.966Z,29.5
2018-03-08T03:57:39.118Z,29.5
2018-03-08T03:58:29.078Z,29.5
2018-03-08T03:59:18.881Z,29.5
2018-03-08T04:00:09.272Z,29.5
2018-03-08T04:00:58.379Z,29.5
2018-03-08T04:01:48.679Z,29.5
2018-03-08T04:02:38.969Z,29.5
2018-03-08T04:03:29.349Z,29.5
2018-03-08T04:04:19.202Z,29.6
2018-03-08T04:05:08.589Z,29.6
2018-03-08T04:05:59.210Z,29.6
2018-03-08T04:06:50.098Z,29.6
2018-03-08T04:07:39.740Z,29.6
2018-03-08T04:08:29.489Z,29.5
2018-03-08T04:09:20.318Z,29.4
2018-03-08T04:10:09.438Z,29.4
2018-03-08T04:10:59.558Z,29.3
2018-03-08T04:11:49.990Z,29.2
2018-03-08T04:12:39.949Z,29.1
2018-03-08T04:13:29.613Z,29.1
2018-03-08T04:14:20.482Z,29
2018-03-08T04:15:09.954Z,28.9
2018-03-08T04:16:00.097Z,28.8
2018-03-08T04:16:50.600Z,28.8
2018-03-08T04:17:41.284Z,28.7
2018-03-08T04:18:29.971Z,28.6
2018-03-08T04:19:20.635Z,28.6
2018-03-08T04:20:10.497Z,28.4
2018-03-08T04:21:00.182Z,28.4
2018-03-08T04:21:50.999Z,28.3
2018-03-08T04:22:40.723Z,28.3
2018-03-08T04:23:31.231Z,28.2
2018-03-08T04:24:20.803Z,28.1
2018-03-08T04:25:25.291Z,28
2018-03-08T04:26:01.284Z,27.9
2018-03-08T04:26:51.173Z,27.9
2018-03-08T04:27:41.196Z,27.9
2018-03-08T04:29:20.923Z,27.8
2018-03-08T04:30:10.903Z,27.7
2018-03-08T04:31:00.553Z,27.7
2018-03-08T04:31:51.225Z,27.6
2018-03-08T04:32:40.868Z,27.6
2018-03-08T04:33:31.660Z,27.6
2018-03-08T04:34:22.262Z,27.5
2018-03-08T04:35:11.424Z,27.4
2018-03-08T04:36:01.235Z,27.4
2018-03-08T04:36:51.595Z,27.4
2018-03-08T04:37:41.803Z,27.4
2018-03-08T04:38:31.659Z,27.4
2018-03-08T04:39:21.628Z,27.3
2018-03-08T04:40:12.254Z,27.3
2018-03-08T04:41:01.665Z,27.3
2018-03-08T04:41:51.985Z,27.3
2018-03-08T04:42:42.736Z,27.3
2018-03-08T04:43:31.958Z,27.2
2018-03-08T04:44:22.345Z,27.2
2018-03-08T04:45:12.047Z,27.2
2018-03-08T04:46:02.515Z,27.1
2018-03-08T04:46:52.105Z,27.1
2018-03-08T04:47:42.790Z,27.1
2018-03-08T04:48:32.817Z,27.1
2018-03-08T04:49:22.744Z,27.1
2018-03-08T04:50:12.506Z,27.1
2018-03-08T04:51:03.383Z,27
2018-03-08T04:51:52.342Z,27
2018-03-08T04:52:42.679Z,27
2018-03-08T04:53:32.210Z,27
2018-03-08T04:54:23.390Z,26.9
2018-03-08T04:55:12.648Z,26.9
2018-03-08T04:56:03.096Z,26.9
2018-03-08T04:56:52.659Z,26.9
2018-03-08T04:57:43.782Z,26.9
2018-03-08T04:58:33.483Z,26.9
2018-03-08T04:59:22.941Z,26.9
2018-03-08T05:00:13.980Z,26.9
2018-03-08T05:01:03.148Z,26.9
2018-03-08T05:01:53.629Z,26.9
2018-03-08T05:02:42.395Z,26.9
2018-03-08T05:03:33.456Z,26.8
2018-03-08T05:04:23.008Z,26.8
2018-03-08T05:05:13.658Z,26.9
2018-03-08T05:06:03.634Z,26.8
2018-03-08T05:06:54.164Z,26.8
2018-03-08T05:07:44.063Z,26.8
2018-03-08T05:08:33.190Z,26.8
2018-03-08T05:09:24.150Z,26.8
2018-03-08T05:10:14.100Z,26.8
2018-03-08T05:11:03.870Z,26.8
2018-03-08T05:11:53.542Z,26.8
2018-03-08T05:12:44.617Z,26.8
2018-03-08T05:13:34.481Z,26.8
2018-03-08T05:14:24.381Z,26.8
2018-03-08T05:15:14.747Z,26.8
2018-03-08T05:16:04.883Z,26.8
2018-03-08T05:16:55.026Z,26.7
2018-03-08T05:17:44.315Z,26.7
2018-03-08T05:18:34.377Z,26.7
2018-03-08T05:19:25.030Z,26.7
2018-03-08T05:20:14.392Z,26.7
2018-03-08T05:21:05.220Z,26.7
2018-03-08T05:21:55.089Z,26.7
2018-03-08T05:22:44.475Z,26.6
2018-03-08T05:23:34.924Z,26.6
2018-03-08T05:24:25.222Z,26.6
2018-03-08T05:25:15.419Z,26.6
2018-03-08T05:26:06.090Z,26.6
2018-03-08T05:26:54.771Z,26.6
2018-03-08T05:27:45.413Z,26.6
2018-03-08T05:28:35.468Z,26.6
2018-03-08T05:29:24.465Z,26.6
2018-03-08T05:30:14.413Z,26.6
2018-03-08T05:31:05.368Z,26.6
2018-03-08T05:31:56.250Z,26.6
2018-03-08T05:32:44.580Z,26.6
2018-03-08T05:33:36.542Z,26.6
2018-03-08T05:34:26.647Z,26.6
2018-03-08T05:35:16.669Z,26.6
2018-03-08T05:36:06.478Z,26.6
2018-03-08T05:36:56.793Z,26.6
2018-03-08T05:37:46.940Z,26.6
2018-03-08T05:38:36.905Z,26.6
2018-03-08T05:39:27.010Z,26.6
2018-03-08T05:40:17.031Z,26.6
2018-03-08T05:41:06.874Z,26.6
2018-03-08T05:41:56.628Z,26.6
2018-03-08T05:42:46.775Z,26.6
2018-03-08T05:43:36.774Z,26.5
2018-03-08T05:44:26.764Z,26.5
2018-03-08T05:45:16.548Z,26.6
2018-03-08T05:46:07.157Z,26.5
2018-03-08T05:46:56.452Z,26.5
2018-03-08T05:47:46.722Z,26.5
2018-03-08T05:48:37.149Z,26.5
2018-03-08T05:49:26.449Z,26.5
2018-03-08T05:50:16.677Z,26.5
2018-03-08T05:51:07.069Z,26.5
2018-03-08T05:51:56.302Z,26.4
2018-03-08T05:52:47.126Z,26.4
2018-03-08T05:53:37.998Z,26.4
2018-03-08T05:54:26.338Z,26.4
2018-03-08T05:55:16.981Z,26.4
2018-03-08T05:56:06.894Z,26.4
2018-03-08T05:56:57.346Z,26.4
2018-03-08T05:57:46.994Z,26.4
2018-03-08T05:58:37.300Z,26.4
2018-03-08T05:59:27.785Z,26.4
2018-03-08T06:00:17.774Z,26.4
2018-03-08T06:01:08.023Z,26.4
2018-03-08T06:01:57.089Z,26.4
2018-03-08T06:02:47.467Z,26.4
2018-03-08T06:03:37.518Z,26.4
2018-03-08T06:04:27.695Z,26.4
2018-03-08T06:05:17.596Z,26.4
2018-03-08T06:06:07.409Z,26.4
2018-03-08T06:06:57.718Z,26.4
2018-03-08T06:07:47.908Z,26.3
2018-03-08T06:08:37.980Z,26.4
2018-03-08T06:09:27.722Z,26.3
2018-03-08T06:10:18.111Z,26.3
2018-03-08T06:11:07.964Z,26.3
2018-03-08T06:11:57.609Z,26.3
2018-03-08T06:12:48.184Z,26.3
2018-03-08T06:13:38.308Z,26.3
2018-03-08T06:14:29.129Z,26.3
2018-03-08T06:15:18.404Z,26.3
2018-03-08T06:16:07.796Z,26.2
2018-03-08T06:16:58.053Z,26.2
2018-03-08T06:17:48.622Z,26.2
2018-03-08T06:18:38.254Z,26.2
2018-03-08T06:19:28.851Z,26.2
2018-03-08T06:20:19.076Z,26.1
2018-03-08T06:21:08.742Z,26.1
2018-03-08T06:21:58.890Z,26.1
2018-03-08T06:22:48.476Z,26.1
2018-03-08T06:23:40.346Z,26.1
2018-03-08T06:24:29.397Z,26.1
2018-03-08T06:25:19.673Z,26.1
2018-03-08T06:26:10.145Z,26.1
2018-03-08T06:26:59.532Z,26.1
2018-03-08T06:27:50.098Z,26.1
2018-03-08T06:28:39.938Z,26.1
2018-03-08T06:29:29.449Z,26
2018-03-08T06:30:20.303Z,26
2018-03-08T06:31:08.260Z,26
2018-03-08T06:32:00.387Z,26
2018-03-08T06:32:49.908Z,26
2018-03-08T06:33:40.534Z,26
2018-03-08T06:34:30.624Z,26
2018-03-08T06:35:20.061Z,25.9
2018-03-08T06:36:10.139Z,25.9
2018-03-08T06:37:00.770Z,25.9
2018-03-08T06:37:50.522Z,25.9
2018-03-08T06:38:41.347Z,25.9
2018-03-08T18:45:00.203Z,20.4
2018-03-08T18:45:49.557Z,20.4
2018-03-08T18:46:40.501Z,20.4
2018-03-08T18:47:29.869Z,20.4
2018-03-08T18:48:20.659Z,20.4
2018-03-08T18:49:10.184Z,20.4
2018-03-08T18:50:00.433Z,20.4
2018-03-08T18:50:49.862Z,20.4
2018-03-08T18:51:40.801Z,20.4
2018-03-08T18:52:31.726Z,20.4
2018-03-08T18:53:21.444Z,20.4
2018-03-08T18:54:11.506Z,20.4
2018-03-08T18:55:01.674Z,20.3
2018-03-08T18:55:51.908Z,20.4
2018-03-08T18:56:41.222Z,20.3
2018-03-08T18:57:31.036Z,20.3
2018-03-08T18:58:20.679Z,20.3
2018-03-08T18:59:10.858Z,20.3
2018-03-08T19:00:00.442Z,20.3
2018-03-08T19:00:51.212Z,20.3
2018-03-08T19:01:40.983Z,20.3
2018-03-08T19:02:30.968Z,20.3
2018-03-08T19:03:21.429Z,20.3
2018-03-08T19:04:11.506Z,20.3
2018-03-08T19:05:01.780Z,20.3
2018-03-08T19:05:51.639Z,20.3
2018-03-08T19:06:41.304Z,20.3
2018-03-08T19:07:31.666Z,20.3
2018-03-08T19:08:22.541Z,20.3
2018-03-08T19:09:11.768Z,20.3
2018-03-08T19:10:02.109Z,20.3
2018-03-08T19:10:51.580Z,20.3
2018-03-08T19:11:42.198Z,20.3
2018-03-08T19:12:32.069Z,20.3
2018-03-08T19:13:21.812Z,20.3
2018-03-08T19:14:11.430Z,20.3
2018-03-08T19:15:02.284Z,20.3
2018-03-08T19:15:51.630Z,20.3
2018-03-08T19:16:41.583Z,20.3
2018-03-08T19:17:32.030Z,20.3
2018-03-08T19:18:22.603Z,20.3
2018-03-08T19:19:12.275Z,20.3
2018-03-08T19:20:03.115Z,20.3
2018-03-08T19:20:52.836Z,20.3
2018-03-08T19:21:42.065Z,20.3
2018-03-08T19:22:32.815Z,20.3
2018-03-08T19:23:22.145Z,20.3
2018-03-08T19:24:12.333Z,20.3
2018-03-08T19:25:03.035Z,20.3
2018-03-08T19:25:52.650Z,20.3
2018-03-08T19:26:41.640Z,20.3
2018-03-08T19:27:33.057Z,20.3
2018-03-08T19:28:22.413Z,20.3
2018-03-08T19:29:13.456Z,20.3
2018-03-08T19:30:03.284Z,20.3
2018-03-08T19:30:53.286Z,20.3
2018-03-08T19:31:42.534Z,20.2
2018-03-08T19:32:33.084Z,20.3
2018-03-08T19:33:23.762Z,20.3
2018-03-08T19:34:13.105Z,20.3
2018-03-08T19:35:03.849Z,20.3
2018-03-08T19:35:53.647Z,20.3
2018-03-08T19:36:44.875Z,20.3
2018-03-08T19:37:34.337Z,20.2
2018-03-08T19:38:24.925Z,20.3
2018-03-08T19:39:14.662Z,20.2
2018-03-08T19:40:04.434Z,20.2
2018-03-08T19:40:54.529Z,20.2
2018-03-08T19:41:44.259Z,20.2
2018-03-08T19:42:35.166Z,20.3
2018-03-08T19:43:23.601Z,20.3
2018-03-08T19:44:14.164Z,20.2
2018-03-08T19:45:04.077Z,20.2
2018-03-08T19:45:54.325Z,20.2
2018-03-08T19:46:44.259Z,20.2
2018-03-08T19:47:34.058Z,20.3
2018-03-08T19:48:24.876Z,20.2
2018-03-08T19:49:15.142Z,20.2
2018-03-08T19:50:04.753Z,20.2
2018-03-08T19:50:54.233Z,20.2
2018-03-08T19:51:44.997Z,20.2
2018-03-08T19:52:34.322Z,20.2
2018-03-08T19:53:24.825Z,20.2
2018-03-08T19:54:13.910Z,20.2
2018-03-08T19:55:05.269Z,20.2
2018-03-08T19:55:54.793Z,20.2
2018-03-08T19:56:43.980Z,20.2
2018-03-08T19:57:34.645Z,20.2
2018-03-08T19:58:25.294Z,20.2
2018-03-08T19:59:14.975Z,20.2
2018-03-08T20:00:05.635Z,20.2
2018-03-08T20:00:54.958Z,20.2
2018-03-08T20:01:46.458Z,20.2
2018-03-08T20:02:36.030Z,20.2
2018-03-08T20:03:26.092Z,20.2
2018-03-08T20:04:16.489Z,20.2
2018-03-08T20:05:06.488Z,20.2
2018-03-08T20:05:55.717Z,20.2
2018-03-08T20:06:46.669Z,20.1
2018-03-08T20:07:36.147Z,20.2
2018-03-08T20:08:26.718Z,20.2
2018-03-08T20:09:16.497Z,20.2
2018-03-08T20:10:06.575Z,20.2
2018-03-08T20:10:56.322Z,20.2
2018-03-08T20:11:46.949Z,20.2
2018-03-08T20:12:36.709Z,20.2
2018-03-08T20:13:26.752Z,20.1
2018-03-08T20:14:16.538Z,20.2
2018-03-08T20:15:07.534Z,20.1
2018-03-08T20:15:56.941Z,20.2
2018-03-08T20:16:47.339Z,20.2
2018-03-08T20:17:37.605Z,20.1
2018-03-08T20:18:27.681Z,20.1
2018-03-08T20:19:17.432Z,20.2
2018-03-08T20:20:07.297Z,20.1
2018-03-08T20:20:57.589Z,20.1
2018-03-08T20:21:46.119Z,20.2
2018-03-08T20:22:36.960Z,20.1
2018-03-08T20:23:27.495Z,20.1
2018-03-08T20:24:16.475Z,20.1
2018-03-08T20:25:06.429Z,20.1
2018-03-08T20:25:57.352Z,20.1
2018-03-08T20:26:46.856Z,20.2
2018-03-08T20:27:37.599Z,20.1
2018-03-08T20:28:26.879Z,20.1
2018-03-08T20:29:17.723Z,20.1
2018-03-08T20:30:07.413Z,20.1
2018-03-08T20:30:57.232Z,20.1
2018-03-08T20:31:47.808Z,20.1
2018-03-08T20:32:38.405Z,20.1
2018-03-08T20:33:27.341Z,20.1
2018-03-08T20:34:18.056Z,20.1
2018-03-08T20:35:07.142Z,20.1
2018-03-08T20:35:58.146Z,20.1
2018-03-08T20:36:47.904Z,20.1
2018-03-08T20:37:37.395Z,20.1
2018-03-08T20:38:27.511Z,20.1
2018-03-08T20:39:18.625Z,20.1
2018-03-08T20:40:08.111Z,20.1
2018-03-08T20:40:57.453Z,20.1
2018-03-08T20:41:47.628Z,20.1
2018-03-08T20:42:38.060Z,20.1
2018-03-08T20:43:27.740Z,20.1
2018-03-08T20:44:18.265Z,20.1
2018-03-08T20:45:08.722Z,20.1
2018-03-08T20:45:58.696Z,20.1
2018-03-08T20:46:48.542Z,20.1
2018-03-08T20:47:38.705Z,20.1
2018-03-08T20:48:28.527Z,20.1
2018-03-08T20:49:18.227Z,20.1
2018-03-08T20:50:08.030Z,20.1
2018-03-08T20:50:59.017Z,20.1
2018-03-08T20:51:48.292Z,20.1
2018-03-08T20:52:39.308Z,20.1
2018-03-08T20:53:28.809Z,20.1
2018-03-08T20:54:18.560Z,20.1
2018-03-08T20:55:08.347Z,20.1
2018-03-08T20:55:58.982Z,20.1
2018-03-08T20:56:48.649Z,20.1
2018-03-08T20:57:38.669Z,20.1
2018-03-08T20:58:29.484Z,20.1
2018-03-08T20:59:19.204Z,20.1
2018-03-08T21:00:08.963Z,20.1
2018-03-08T21:00:58.999Z,20.1
2018-03-08T21:01:49.667Z,20.1
2018-03-08T21:02:39.460Z,20.1
2018-03-08T21:03:30.117Z,20.1
2018-03-08T21:04:19.869Z,20.1
2018-03-08T21:05:09.652Z,20.1
2018-03-08T21:05:59.377Z,20.1
2018-03-08T21:06:49.849Z,20.1
2018-03-08T21:07:39.824Z,20.1
2018-03-08T21:08:30.434Z,20.1
2018-03-08T21:09:19.542Z,20.1
2018-03-08T21:10:10.047Z,20.1
2018-03-08T21:10:59.441Z,20.1
2018-03-08T21:11:49.896Z,20.1
2018-03-08T21:12:40.214Z,20.1
2018-03-08T21:13:29.701Z,20.1
2018-03-08T21:14:19.376Z,20.1
2018-03-08T21:15:10.355Z,20.1
2018-03-08T21:15:59.476Z,20.1
2018-03-08T21:16:50.422Z,20.1
2018-03-08T21:17:40.298Z,20.1
2018-03-08T21:18:31.043Z,20.1
2018-03-08T21:19:21.643Z,20.1
2018-03-08T21:20:11.946Z,20.1
2018-03-08T21:21:01.704Z,20.1
2018-03-08T21:21:51.771Z,20.1
2018-03-08T21:22:42.101Z,20.1
2018-03-08T21:23:31.912Z,20.1
2018-03-08T21:24:21.953Z,20.1
2018-03-08T21:25:11.803Z,20.1
2018-03-08T21:26:02.055Z,20.1
2018-03-08T21:26:52.406Z,20.1
2018-03-08T21:27:41.949Z,20.1
2018-03-08T21:28:32.533Z,20.1
2018-03-08T21:29:22.060Z,20.1
2018-03-08T21:30:12.362Z,20.1
2018-03-08T21:31:02.425Z,20.1
2018-03-08T21:31:52.745Z,20.1
2018-03-08T21:32:42.520Z,20.1
2018-03-08T21:33:32.827Z,20.1
2018-03-08T21:34:22.948Z,20.1
2018-03-08T21:35:12.475Z,20.1
2018-03-08T21:36:02.800Z,20.1
2018-03-08T21:36:52.835Z,20.1
2018-03-08T21:37:42.909Z,20.1
2018-03-08T21:38:32.705Z,20.1
2018-03-08T21:39:22.767Z,20.1
2018-03-08T21:40:13.370Z,20.1
2018-03-08T21:41:03.195Z,20.1
2018-03-08T21:41:53.307Z,20.1
2018-03-08T21:42:43.540Z,20.1
2018-03-08T21:43:32.752Z,20.1
2018-03-08T21:44:23.373Z,20.1
2018-03-08T21:45:12.881Z,20.1
2018-03-08T21:46:03.234Z,20.1
2018-03-08T21:46:53.562Z,20.1
2018-03-08T21:47:42.881Z,20.1
2018-03-08T21:48:33.542Z,20.1
2018-03-08T21:49:22.932Z,20.1
2018-03-08T21:50:13.644Z,20.1
2018-03-08T21:51:03.413Z,20.1
2018-03-08T21:51:53.431Z,20.1
2018-03-08T21:52:43.752Z,20.1
2018-03-08T21:53:34.270Z,20.1
2018-03-08T21:54:23.523Z,20
2018-03-08T21:55:14.112Z,20
2018-03-08T21:56:03.936Z,20
2018-03-08T21:56:53.968Z,20.1
2018-03-08T21:57:44.113Z,20
2018-03-08T21:58:33.527Z,20
2018-03-08T21:59:24.141Z,20
2018-03-08T22:00:14.524Z,20.1
2018-03-08T22:01:04.623Z,20
2018-03-08T22:01:54.322Z,20.1
2018-03-08T22:02:44.368Z,20
2018-03-08T22:03:34.448Z,20
2018-03-08T22:04:25.060Z,20
2018-03-08T22:05:14.573Z,20.1
2018-03-08T22:06:04.659Z,20
2018-03-08T22:06:54.642Z,20
2018-03-08T22:07:45.306Z,20
2018-03-08T22:08:35.313Z,20
2018-03-08T22:09:25.382Z,20
2018-03-08T22:10:14.905Z,20
2018-03-08T22:11:05.242Z,20
2018-03-08T22:11:55.401Z,20
2018-03-08T22:12:45.051Z,20
2018-03-08T22:13:35.689Z,20
2018-03-08T22:14:25.723Z,20
2018-03-08T22:15:15.769Z,20
2018-03-08T22:16:05.566Z,20
2018-03-08T22:16:55.890Z,20
2018-03-08T22:17:45.700Z,20
2018-03-08T22:18:35.716Z,20.1
2018-03-08T22:19:26.087Z,20.1
2018-03-08T22:20:15.577Z,20.1
2018-03-08T22:21:06.205Z,20.1
2018-03-08T22:21:55.990Z,20.1
2018-03-08T22:22:46.320Z,20.1
2018-03-08T22:23:36.062Z,20.1
2018-03-08T22:24:26.112Z,20.1
2018-03-08T22:25:16.486Z,20.1
2018-03-08T22:26:05.960Z,20.1
2018-03-08T22:26:56.305Z,20.1
2018-03-08T22:27:46.659Z,20.1
2018-03-08T22:28:35.697Z,20
2018-03-08T22:29:25.767Z,20.1
2018-03-08T22:30:15.812Z,20.1
2018-03-08T22:31:05.881Z,20
2018-03-08T22:31:55.712Z,20
2018-03-08T22:32:46.415Z,20.1
2018-03-08T22:33:36.136Z,20.1
2018-03-08T22:34:25.442Z,20.1
2018-03-08T22:35:16.173Z,20.1
2018-03-08T22:36:06.713Z,20.1
2018-03-08T22:36:55.815Z,20.1
2018-03-08T22:37:46.323Z,20.1
2018-03-08T22:38:36.204Z,20
2018-03-08T22:39:26.066Z,20.1
2018-03-08T22:40:16.533Z,20.1
2018-03-08T22:41:05.887Z,20.1
2018-03-08T22:41:56.399Z,20.1
2018-03-08T22:42:46.607Z,20.1
2018-03-08T22:43:36.652Z,20.1
2018-03-08T22:44:26.045Z,20.1
2018-03-08T22:45:16.461Z,20
2018-03-08T22:46:06.818Z,20.1
2018-03-08T22:46:56.351Z,20.1
2018-03-08T22:47:47.025Z,20.1
2018-03-08T22:48:36.109Z,20.1
2018-03-08T22:49:26.913Z,20.1
2018-03-08T22:50:17.319Z,20.1
2018-03-08T22:51:07.168Z,20.1
2018-03-08T22:51:56.646Z,20.1
2018-03-08T22:52:48.393Z,20.1
2018-03-08T22:53:38.201Z,20
2018-03-08T22:54:28.494Z,20.1
2018-03-08T22:55:18.619Z,20.1
2018-03-08T22:56:08.123Z,20.1
2018-03-08T22:56:58.437Z,20
2018-03-08T22:57:48.482Z,20.1
2018-03-08T22:58:38.247Z,20.1
2018-03-08T22:59:28.671Z,20
2018-03-08T23:00:18.066Z,20
2018-03-08T23:01:08.402Z,20.1
2018-03-08T23:01:58.785Z,20
2018-03-08T23:02:48.817Z,20.1
2018-03-08T23:03:38.917Z,20
2018-03-08T23:04:28.688Z,20.1
2018-03-08T23:05:19.040Z,20.1
2018-03-08T23:06:09.293Z,20.1
2018-03-08T23:06:59.095Z,20.1
2018-03-08T23:07:49.148Z,20.1
2018-03-08T23:08:38.925Z,20
2018-03-08T23:09:29.030Z,20.1
2018-03-08T23:10:19.613Z,20
2018-03-08T23:11:09.384Z,20
2018-03-08T23:11:59.202Z,20.1
2018-03-08T23:12:49.308Z,20
2018-03-08T23:13:39.858Z,20
2018-03-08T23:14:30.122Z,20
2018-03-08T23:15:19.401Z,20
2018-03-08T23:16:10.017Z,20
2018-03-08T23:16:59.797Z,20